»·PEaware :: DAL1188 KLAS-KSBA

DAL1188 :: KLAS-KSBA

FLIGHT INFORMATION

Flight Status: Arrived
Operator:
Delta Air Lines
More flights by this operator :: More flights under this callsign
Pilot: Ryan B. (8502)
Aircraft: BOEING 737-800
(B738)
More flights by this aircraft type
Origin: KLAS McCarran Intl
United States
Destination: KSBA Santa Barbara Mun
United States
More flights between these airports :: More routes between these airports
Route: +BOACH6 HEC PITBL1
File this flight plan on PilotEdge
Remarks:
Altitude:
(Current/Filed)
34,000ft
Speed:
(Current/Filed)
442kts
Departed: 19-Jul-17 02:54 PM
Arrived: 19-Jul-17 03:42 PM
Distance/Time
Traveled:
250nm/0:48
Distance/Time
To Go:
Arrived

Flight Plot

Page will automatically refresh every two minutes.

Flight plan parsing failed; only flown route is shown


Map Options




Map Legend


Flown Route
Filed Route
Departure Airport
Arrival Airport
Navaid (VOR, NDB)
Fix

Horizontal Profiles

Position Reports

Time Latitude Longitude Heading Altitude Ground
Speed
19-Jul-17 14:38 36.083990 -115.169612 99 2166ft 0kts
19-Jul-17 14:39 36.083990 -115.169612 99 2166ft 0kts
19-Jul-17 14:40 36.083990 -115.169612 99 2166ft 0kts
19-Jul-17 14:41 36.083990 -115.169612 99 2166ft 0kts
19-Jul-17 14:42 36.083990 -115.169612 99 2166ft 0kts
19-Jul-17 14:43 36.083990 -115.169612 99 2166ft 0kts
19-Jul-17 14:44 36.083990 -115.169612 99 2166ft 0kts
19-Jul-17 14:45 36.083990 -115.169612 99 2166ft 0kts
19-Jul-17 14:46 36.083990 -115.169612 99 2166ft 0kts
19-Jul-17 14:47 36.083990 -115.169612 99 2166ft 0kts
19-Jul-17 14:48 36.083990 -115.169612 99 2166ft 0kts
19-Jul-17 14:49 36.083990 -115.169612 99 2166ft 0kts
19-Jul-17 14:50 36.083990 -115.169612 99 2166ft 0kts
19-Jul-17 14:51 36.083990 -115.169612 99 2166ft 0kts
19-Jul-17 14:52 36.083939 -115.168710 69 2163ft 9kts
19-Jul-17 14:53 36.087134 -115.165956 25 2146ft 21kts
19-Jul-17 14:54 36.094108 -115.161949 24 2114ft 34kts
19-Jul-17 14:55 36.099716 -115.157771 75 2090ft 0kts
19-Jul-17 14:56 36.099745 -115.157622 77 2090ft 4kts
19-Jul-17 14:57 36.092521 -115.160519 204 2113ft 111kts
19-Jul-17 14:58 36.056641 -115.180960 203 3886ft 150kts
19-Jul-17 14:59 36.016820 -115.205739 225 5754ft 181kts
19-Jul-17 15:00 35.986082 -115.269382 239 7054ft 260kts
19-Jul-17 15:01 35.920946 -115.305655 188 10233ft 274kts
19-Jul-17 15:02 35.841629 -115.312407 176 12558ft 327kts
19-Jul-17 15:03 35.747415 -115.302442 175 15589ft 346kts
19-Jul-17 15:04 35.656976 -115.329374 222 18300ft 358kts
19-Jul-17 15:05 35.587116 -115.418131 226 20717ft 370kts
19-Jul-17 15:06 35.516753 -115.511908 226 22846ft 381kts
19-Jul-17 15:07 35.442410 -115.611313 226 23928ft 401kts
19-Jul-17 15:08 35.375155 -115.701082 225 25582ft 397kts
19-Jul-17 15:09 35.299707 -115.801486 225 27013ft 408kts
19-Jul-17 15:10 35.222359 -115.904104 225 28371ft 418kts
19-Jul-17 15:11 35.143174 -116.008832 225 29682ft 427kts
19-Jul-17 15:12 35.062294 -116.115494 224 31076ft 436kts
19-Jul-17 15:13 34.979416 -116.224362 225 32245ft 446kts
19-Jul-17 15:14 34.894232 -116.335927 225 33226ft 458kts
19-Jul-17 15:15 34.810118 -116.452611 238 33973ft 474kts
19-Jul-17 15:16 34.775641 -116.609771 258 33984ft 486kts
19-Jul-17 15:17 34.751312 -116.771287 258 33990ft 494kts
19-Jul-17 15:18 34.726793 -116.934461 258 34000ft 494kts
19-Jul-17 15:19 34.701989 -117.098020 257 34051ft 495kts
19-Jul-17 15:20 34.676861 -117.261961 257 34065ft 495kts
19-Jul-17 15:21 34.651673 -117.424914 257 34065ft 495kts
19-Jul-17 15:22 34.626124 -117.588664 257 34063ft 493kts
19-Jul-17 15:23 34.601537 -117.745095 257 31449ft 467kts
19-Jul-17 15:24 34.577642 -117.895478 257 28880ft 444kts
19-Jul-17 15:25 34.555724 -118.032274 257 26540ft 425kts
19-Jul-17 15:26 34.533544 -118.169697 257 24169ft 413kts
19-Jul-17 15:27 34.510101 -118.314085 257 24054ft 448kts
19-Jul-17 15:28 34.486184 -118.460688 258 24057ft 445kts
19-Jul-17 15:29 34.463153 -118.600129 257 23256ft 399kts
19-Jul-17 15:30 34.442150 -118.725905 258 20558ft 381kts
19-Jul-17 15:31 34.421732 -118.848055 258 17845ft 366kts
19-Jul-17 15:32 34.401949 -118.966054 258 15161ft 353kts
19-Jul-17 15:33 34.382647 -119.080278 258 14016ft 359kts
19-Jul-17 15:34 34.362791 -119.198539 258 13716ft 348kts
19-Jul-17 15:35 34.343496 -119.312318 259 10831ft 343kts
19-Jul-17 15:36 34.326414 -119.413021 258 10402ft 279kts
19-Jul-17 15:37 34.310846 -119.504211 258 8701ft 276kts
19-Jul-17 15:38 34.323971 -119.590946 295 7461ft 260kts
19-Jul-17 15:39 34.355788 -119.664252 297 6127ft 231kts
19-Jul-17 15:40 34.384006 -119.728826 294 4058ft 191kts
19-Jul-17 15:41 34.406759 -119.781630 294 2241ft 169kts
19-Jul-17 15:42 34.382697 -119.792781 109 1637ft 174kts
19-Jul-17 15:43 34.413726 -119.768950 321 1680ft 159kts
19-Jul-17 15:44 34.428219 -119.814294 267 645ft 138kts
19-Jul-17 15:45 34.427598 -119.848836 267 17ft 6kts
19-Jul-17 15:46 34.426442 -119.850555 88 18ft 13kts
19-Jul-17 15:47 34.426632 -119.842098 88 17ft 32kts
19-Jul-17 15:48 34.425535 -119.837335 126 14ft 5kts
19-Jul-17 15:49 34.425390 -119.837224 147 14ft 0kts

Navigation Log

Ident Type
Flight plan parsing failed, navigation log unavailable